TimeEDT,TemperatureF,Dew PointF,Humidity,Sea Level PressureIn,VisibilityMPH,Wind Direction,Wind SpeedMPH,Gust SpeedMPH,PrecipitationIn,Events,Conditions,WindDirDegrees,DateUTC
12:15 AM,59.2,52.3,78,30.31,10.0,SSE,3.5,-,N/A,,Clear,150,2013-10-30 04:15:00
12:35 AM,59.2,52.2,78,30.30,10.0,SSE,3.5,-,N/A,,Clear,150,2013-10-30 04:35:00
12:55 AM,59.4,52.2,77,30.30,10.0,Calm,Calm,-,N/A,,Clear,0,2013-10-30 04:55:00
1:15 AM,57.9,52.2,81,30.30,10.0,Calm,Calm,-,N/A,,Clear,0,2013-10-30 05:15:00
1:35 AM,58.3,52.0,80,30.31,10.0,SE,3.5,-,N/A,,Clear,140,2013-10-30 05:35:00
1:55 AM,57.7,51.8,81,30.30,10.0,Calm,Calm,-,N/A,,Clear,0,2013-10-30 05:55:00
2:15 AM,55.6,51.8,87,30.30,10.0,Calm,Calm,-,N/A,,Clear,0,2013-10-30 06:15:00
2:35 AM,56.3,51.4,84,30.30,10.0,Calm,Calm,-,N/A,,Clear,0,2013-10-30 06:35:00
2:55 AM,50.9,50.0,97,30.30,10.0,Calm,Calm,-,N/A,,Clear,0,2013-10-30 06:55:00
3:15 AM,51.8,50.9,97,30.30,10.0,Calm,Calm,-,N/A,,Clear,0,2013-10-30 07:15:00
3:35 AM,52.2,51.3,97,30.30,10.0,Calm,Calm,-,N/A,,Clear,0,2013-10-30 07:35:00
3:55 AM,51.6,50.5,96,30.30,10.0,Calm,Calm,-,N/A,,Clear,0,2013-10-30 07:55:00
4:15 AM,51.8,51.1,97,30.29,10.0,Calm,Calm,-,N/A,,Clear,0,2013-10-30 08:15:00
4:35 AM,52.3,51.6,97,30.29,10.0,Calm,Calm,-,N/A,,Clear,0,2013-10-30 08:35:00
4:55 AM,52.7,51.3,95,30.29,10.0,Calm,Calm,-,N/A,,Clear,0,2013-10-30 08:55:00
5:15 AM,52.5,51.3,95,30.29,10.0,Calm,Calm,-,N/A,,Clear,0,2013-10-30 09:15:00
5:35 AM,52.7,51.4,95,30.29,10.0,Calm,Calm,-,N/A,,Clear,0,2013-10-30 09:35:00
5:55 AM,52.7,51.3,95,30.30,10.0,Calm,Calm,-,N/A,,Clear,0,2013-10-30 09:55:00
6:15 AM,51.8,50.5,95,30.30,10.0,Calm,Calm,-,N/A,,Clear,0,2013-10-30 10:15:00
6:35 AM,51.6,50.5,96,30.30,10.0,Calm,Calm,-,N/A,,Clear,0,2013-10-30 10:35:00
6:55 AM,50.9,50.0,97,30.31,10.0,Calm,Calm,-,N/A,,Clear,0,2013-10-30 10:55:00
7:15 AM,51.1,50.9,99,30.31,7.0,Calm,Calm,-,N/A,,Clear,0,2013-10-30 11:15:00
7:35 AM,51.3,50.9,99,30.31,10.0,Calm,Calm,-,N/A,,Clear,0,2013-10-30 11:35:00
7:55 AM,51.6,51.1,98,30.30,7.0,Calm,Calm,-,N/A,,Clear,0,2013-10-30 11:55:00
8:15 AM,50.4,50.0,99,30.31,7.0,Calm,Calm,-,N/A,,Scattered Clouds,0,2013-10-30 12:15:00
8:35 AM,52.0,51.4,98,30.31,10.0,Calm,Calm,-,N/A,,Scattered Clouds,0,2013-10-30 12:35:00
8:55 AM,53.6,52.5,96,30.32,10.0,Calm,Calm,-,N/A,,Scattered Clouds,0,2013-10-30 12:55:00
9:15 AM,55.4,53.4,93,30.32,10.0,Calm,Calm,-,N/A,,Mostly Cloudy,0,2013-10-30 13:15:00
9:35 AM,57.7,53.6,86,30.32,10.0,Calm,Calm,-,N/A,,Overcast,0,2013-10-30 13:35:00
9:55 AM,59.0,53.6,82,30.32,10.0,Calm,Calm,-,N/A,,Overcast,0,2013-10-30 13:55:00
10:15 AM,59.9,54.3,82,30.32,10.0,Calm,Calm,-,N/A,,Mostly Cloudy,0,2013-10-30 14:15:00
10:35 AM,61.2,53.8,77,30.32,10.0,SSW,4.6,-,N/A,,Mostly Cloudy,210,2013-10-30 14:35:00
10:55 AM,61.7,53.6,75,30.32,10.0,SSW,6.9,-,N/A,,Mostly Cloudy,210,2013-10-30 14:55:00
11:15 AM,62.8,53.1,71,30.32,10.0,SSW,8.1,-,N/A,,Overcast,210,2013-10-30 15:15:00
11:35 AM,63.1,53.6,71,30.32,10.0,SW,4.6,-,N/A,,Overcast,230,2013-10-30 15:35:00
11:55 AM,64.4,54.5,70,30.31,10.0,SW,6.9,-,N/A,,Overcast,220,2013-10-30 15:55:00
12:15 PM,66.2,54.1,65,30.30,10.0,SSW,8.1,-,N/A,,Overcast,210,2013-10-30 16:15:00
12:35 PM,66.9,54.1,63,30.29,10.0,SSW,8.1,-,N/A,,Mostly Cloudy,210,2013-10-30 16:35:00
12:55 PM,67.6,54.1,62,30.28,10.0,SW,8.1,-,N/A,,Overcast,220,2013-10-30 16:55:00
1:15 PM,68.9,54.9,61,30.27,10.0,SW,9.2,-,N/A,,Mostly Cloudy,220,2013-10-30 17:15:00
1:35 PM,70.5,55.2,58,30.25,10.0,SSW,9.2,17.3,N/A,,Scattered Clouds,210,2013-10-30 17:35:00
1:55 PM,71.6,55.0,56,30.24,10.0,SW,6.9,16.1,N/A,,Clear,220,2013-10-30 17:55:00
2:15 PM,72.5,54.9,54,30.23,10.0,SSW,8.1,-,N/A,,Clear,210,2013-10-30 18:15:00
2:35 PM,73.2,55.2,53,30.22,10.0,South,6.9,-,N/A,,Clear,180,2013-10-30 18:35:00
2:55 PM,73.8,55.4,53,30.21,10.0,SSW,9.2,-,N/A,,Clear,200,2013-10-30 18:55:00
3:15 PM,74.7,55.2,51,30.21,10.0,SW,6.9,-,N/A,,Clear,220,2013-10-30 19:15:00
3:35 PM,75.4,53.8,47,30.19,10.0,SSW,8.1,-,N/A,,Clear,210,2013-10-30 19:35:00
3:55 PM,75.2,53.2,46,30.19,10.0,SSW,6.9,-,N/A,,Clear,210,2013-10-30 19:55:00
4:15 PM,75.4,53.8,47,30.19,10.0,SW,3.5,-,N/A,,Clear,220,2013-10-30 20:15:00
4:35 PM,74.7,54.0,48,30.19,10.0,West,4.6,-,N/A,,Clear,260,2013-10-30 20:35:00
4:55 PM,75.4,53.6,47,30.20,10.0,SSW,6.9,-,N/A,,Scattered Clouds,200,2013-10-30 20:55:00
5:15 PM,75.2,54.0,47,30.21,10.0,SSW,4.6,-,N/A,,Scattered Clouds,200,2013-10-30 21:15:00
5:35 PM,74.8,54.1,48,30.21,10.0,SSW,4.6,-,N/A,,Clear,200,2013-10-30 21:35:00
5:55 PM,71.6,56.7,59,30.20,10.0,Calm,Calm,-,N/A,,Clear,0,2013-10-30 21:55:00
6:15 PM,69.8,57.0,64,30.21,10.0,Calm,Calm,-,N/A,,Clear,0,2013-10-30 22:15:00
6:35 PM,67.5,57.0,69,30.21,10.0,Calm,Calm,-,N/A,,Clear,0,2013-10-30 22:35:00
6:55 PM,66.0,57.0,73,30.21,10.0,Calm,Calm,-,N/A,,Clear,0,2013-10-30 22:55:00
7:15 PM,65.5,57.0,74,30.22,10.0,Calm,Calm,-,N/A,,Clear,0,2013-10-30 23:15:00
8:55 PM,65.8,56.7,72,30.23,10.0,SE,4.6,-,N/A,,Clear,140,2013-10-31 00:55:00
9:15 PM,65.5,56.7,73,30.23,10.0,Calm,Calm,-,N/A,,Clear,0,2013-10-31 01:15:00
9:35 PM,65.3,56.5,73,30.23,10.0,SSE,3.5,-,N/A,,Clear,160,2013-10-31 01:35:00
9:55 PM,65.3,56.3,73,30.23,10.0,SSE,5.8,-,N/A,,Clear,150,2013-10-31 01:55:00
10:15 PM,65.7,55.9,71,30.23,10.0,SSE,4.6,-,N/A,,Clear,160,2013-10-31 02:15:00
10:35 PM,66.0,55.6,69,30.24,10.0,South,6.9,-,N/A,,Clear,170,2013-10-31 02:35:00
10:55 PM,64.0,55.6,74,30.24,10.0,South,4.6,-,N/A,,Clear,190,2013-10-31 02:55:00
11:15 PM,64.4,55.4,73,30.24,10.0,South,4.6,-,N/A,,Clear,190,2013-10-31 03:15:00
11:35 PM,64.4,55.6,73,30.24,10.0,Calm,Calm,-,N/A,,Clear,0,2013-10-31 03:35:00
11:55 PM,63.5,55.6,75,30.24,10.0,South,3.5,-,N/A,,Clear,170,2013-10-31 03:55:00